sensor_id;sensor_type;location;lat;lon;timestamp;P1;durP1;ratioP1;P2;durP2;ratioP2
6527;SDS011;64597;42.664;23.256;2023-07-31T00:00:30;3.70;;;2.78;;
6527;SDS011;64597;42.664;23.256;2023-07-31T00:02:56;4.03;;;3.00;;
6527;SDS011;64597;42.664;23.256;2023-07-31T00:05:21;4.03;;;3.10;;
6527;SDS011;64597;42.664;23.256;2023-07-31T00:07:47;3.92;;;2.63;;
6527;SDS011;64597;42.664;23.256;2023-07-31T00:10:12;3.42;;;2.63;;
6527;SDS011;64597;42.664;23.256;2023-07-31T00:12:38;5.13;;;3.42;;
6527;SDS011;64597;42.664;23.256;2023-07-31T00:15:05;5.30;;;2.78;;
6527;SDS011;64597;42.664;23.256;2023-07-31T00:17:31;5.20;;;2.80;;
6527;SDS011;64597;42.664;23.256;2023-07-31T00:19:57;4.50;;;3.00;;
6527;SDS011;64597;42.664;23.256;2023-07-31T00:22:22;3.20;;;2.90;;
6527;SDS011;64597;42.664;23.256;2023-07-31T00:24:47;4.47;;;2.92;;
6527;SDS011;64597;42.664;23.256;2023-07-31T00:27:13;3.97;;;2.88;;
6527;SDS011;64597;42.664;23.256;2023-07-31T00:29:38;3.42;;;3.00;;
6527;SDS011;64597;42.664;23.256;2023-07-31T00:32:04;4.97;;;3.17;;
6527;SDS011;64597;42.664;23.256;2023-07-31T00:34:30;5.10;;;3.70;;
6527;SDS011;64597;42.664;23.256;2023-07-31T00:36:55;4.13;;;2.90;;
6527;SDS011;64597;42.664;23.256;2023-07-31T00:39:21;4.53;;;3.53;;
6527;SDS011;64597;42.664;23.256;2023-07-31T00:41:46;5.10;;;3.78;;
6527;SDS011;64597;42.664;23.256;2023-07-31T00:44:11;5.05;;;3.58;;
6527;SDS011;64597;42.664;23.256;2023-07-31T00:46:37;4.25;;;3.65;;
6527;SDS011;64597;42.664;23.256;2023-07-31T00:49:03;5.70;;;4.38;;
6527;SDS011;64597;42.664;23.256;2023-07-31T00:51:29;5.15;;;3.85;;
6527;SDS011;64597;42.664;23.256;2023-07-31T00:53:55;4.45;;;3.55;;
6527;SDS011;64597;42.664;23.256;2023-07-31T00:56:21;4.25;;;3.50;;
6527;SDS011;64597;42.664;23.256;2023-07-31T00:58:47;8.15;;;4.93;;
6527;SDS011;64597;42.664;23.256;2023-07-31T01:01:13;5.25;;;4.63;;
6527;SDS011;64597;42.664;23.256;2023-07-31T01:03:38;8.88;;;5.25;;
6527;SDS011;64597;42.664;23.256;2023-07-31T01:12:01;7.43;;;5.53;;
6527;SDS011;64597;42.664;23.256;2023-07-31T01:14:28;9.27;;;6.32;;
6527;SDS011;64597;42.664;23.256;2023-07-31T01:16:54;7.93;;;6.55;;
6527;SDS011;64597;42.664;23.256;2023-07-31T01:19:23;9.30;;;7.47;;
6527;SDS011;64597;42.664;23.256;2023-07-31T01:27:53;10.55;;;8.07;;
6527;SDS011;64597;42.664;23.256;2023-07-31T01:30:25;11.85;;;8.70;;
6527;SDS011;64597;42.664;23.256;2023-07-31T01:32:52;11.75;;;9.23;;
6527;SDS011;64597;42.664;23.256;2023-07-31T01:35:21;15.07;;;10.52;;
6527;SDS011;64597;42.664;23.256;2023-07-31T01:37:46;13.00;;;10.13;;
6527;SDS011;64597;42.664;23.256;2023-07-31T01:40:12;15.65;;;10.35;;
6527;SDS011;64597;42.664;23.256;2023-07-31T01:42:37;15.38;;;10.23;;
6527;SDS011;64597;42.664;23.256;2023-07-31T01:45:03;15.07;;;10.30;;
6527;SDS011;64597;42.664;23.256;2023-07-31T01:47:29;15.85;;;11.55;;
6527;SDS011;64597;42.664;23.256;2023-07-31T01:49:54;17.38;;;12.40;;
6527;SDS011;64597;42.664;23.256;2023-07-31T01:52:19;15.60;;;10.45;;
6527;SDS011;64597;42.664;23.256;2023-07-31T01:54:45;16.58;;;12.13;;
6527;SDS011;64597;42.664;23.256;2023-07-31T01:57:10;17.10;;;12.40;;
6527;SDS011;64597;42.664;23.256;2023-07-31T01:59:36;19.70;;;12.15;;
6527;SDS011;64597;42.664;23.256;2023-07-31T02:02:01;16.23;;;11.93;;
6527;SDS011;64597;42.664;23.256;2023-07-31T02:04:26;19.08;;;12.20;;
6527;SDS011;64597;42.664;23.256;2023-07-31T02:06:52;17.65;;;12.43;;
6527;SDS011;64597;42.664;23.256;2023-07-31T02:09:18;18.48;;;12.20;;
6527;SDS011;64597;42.664;23.256;2023-07-31T02:11:43;17.05;;;12.73;;
6527;SDS011;64597;42.664;23.256;2023-07-31T02:14:09;17.25;;;12.60;;
6527;SDS011;64597;42.664;23.256;2023-07-31T02:16:34;18.38;;;13.13;;
6527;SDS011;64597;42.664;23.256;2023-07-31T02:18:59;19.38;;;13.45;;
6527;SDS011;64597;42.664;23.256;2023-07-31T02:21:25;17.42;;;12.68;;
6527;SDS011;64597;42.664;23.256;2023-07-31T02:23:50;20.65;;;13.88;;
6527;SDS011;64597;42.664;23.256;2023-07-31T02:26:16;17.55;;;12.43;;
6527;SDS011;64597;42.664;23.256;2023-07-31T02:28:41;17.08;;;11.85;;
6527;SDS011;64597;42.664;23.256;2023-07-31T02:31:08;14.02;;;11.10;;
6527;SDS011;64597;42.664;23.256;2023-07-31T02:33:34;18.42;;;12.63;;
6527;SDS011;64597;42.664;23.256;2023-07-31T02:35:59;16.45;;;12.60;;
6527;SDS011;64597;42.664;23.256;2023-07-31T02:38:24;16.52;;;12.38;;
6527;SDS011;64597;42.664;23.256;2023-07-31T02:40:50;18.30;;;13.40;;
6527;SDS011;64597;42.664;23.256;2023-07-31T02:43:15;18.80;;;12.88;;
6527;SDS011;64597;42.664;23.256;2023-07-31T02:45:41;18.13;;;12.48;;
6527;SDS011;64597;42.664;23.256;2023-07-31T02:48:06;18.05;;;12.82;;
6527;SDS011;64597;42.664;23.256;2023-07-31T02:50:32;16.80;;;12.80;;
6527;SDS011;64597;42.664;23.256;2023-07-31T02:52:58;17.73;;;12.77;;
6527;SDS011;64597;42.664;23.256;2023-07-31T02:55:24;18.40;;;13.27;;
6527;SDS011;64597;42.664;23.256;2023-07-31T02:57:49;17.75;;;13.10;;
6527;SDS011;64597;42.664;23.256;2023-07-31T03:00:17;20.17;;;13.95;;
6527;SDS011;64597;42.664;23.256;2023-07-31T03:02:42;19.13;;;13.68;;
6527;SDS011;64597;42.664;23.256;2023-07-31T03:05:08;19.27;;;13.15;;
6527;SDS011;64597;42.664;23.256;2023-07-31T03:07:33;20.05;;;14.02;;
6527;SDS011;64597;42.664;23.256;2023-07-31T03:09:58;19.77;;;12.85;;
6527;SDS011;64597;42.664;23.256;2023-07-31T03:12:24;19.67;;;12.80;;
6527;SDS011;64597;42.664;23.256;2023-07-31T03:14:49;16.98;;;11.93;;
6527;SDS011;64597;42.664;23.256;2023-07-31T03:17:15;18.05;;;12.68;;
6527;SDS011;64597;42.664;23.256;2023-07-31T03:19:40;19.15;;;12.70;;
6527;SDS011;64597;42.664;23.256;2023-07-31T03:22:06;20.35;;;14.18;;
6527;SDS011;64597;42.664;23.256;2023-07-31T03:24:31;18.42;;;12.23;;
6527;SDS011;64597;42.664;23.256;2023-07-31T03:26:56;18.13;;;12.18;;
6527;SDS011;64597;42.664;23.256;2023-07-31T03:29:22;20.02;;;13.50;;
6527;SDS011;64597;42.664;23.256;2023-07-31T03:31:47;18.70;;;13.20;;
6527;SDS011;64597;42.664;23.256;2023-07-31T03:34:13;20.92;;;13.38;;
6527;SDS011;64597;42.664;23.256;2023-07-31T03:36:38;18.02;;;13.02;;
6527;SDS011;64597;42.664;23.256;2023-07-31T03:39:03;18.75;;;13.23;;
6527;SDS011;64597;42.664;23.256;2023-07-31T03:41:29;19.50;;;13.40;;
6527;SDS011;64597;42.664;23.256;2023-07-31T03:43:54;20.65;;;13.15;;
6527;SDS011;64597;42.664;23.256;2023-07-31T03:46:21;22.30;;;14.10;;
6527;SDS011;64597;42.664;23.256;2023-07-31T03:48:47;20.30;;;12.93;;
6527;SDS011;64597;42.664;23.256;2023-07-31T03:51:13;20.40;;;12.98;;
6527;SDS011;64597;42.664;23.256;2023-07-31T03:53:38;19.27;;;12.38;;
6527;SDS011;64597;42.664;23.256;2023-07-31T03:56:04;18.48;;;12.85;;
6527;SDS011;64597;42.664;23.256;2023-07-31T03:58:29;20.02;;;13.32;;
6527;SDS011;64597;42.664;23.256;2023-07-31T04:00:55;20.23;;;12.23;;
6527;SDS011;64597;42.664;23.256;2023-07-31T04:03:20;17.98;;;12.40;;
6527;SDS011;64597;42.664;23.256;2023-07-31T04:05:46;16.83;;;11.52;;
6527;SDS011;64597;42.664;23.256;2023-07-31T04:08:11;18.10;;;12.35;;
6527;SDS011;64597;42.664;23.256;2023-07-31T04:10:36;19.13;;;12.23;;
6527;SDS011;64597;42.664;23.256;2023-07-31T04:13:02;18.83;;;12.73;;
6527;SDS011;64597;42.664;23.256;2023-07-31T04:15:27;18.13;;;12.50;;
6527;SDS011;64597;42.664;23.256;2023-07-31T04:17:53;18.95;;;12.35;;
6527;SDS011;64597;42.664;23.256;2023-07-31T04:20:18;20.65;;;12.75;;
6527;SDS011;64597;42.664;23.256;2023-07-31T04:22:44;18.38;;;13.35;;
6527;SDS011;64597;42.664;23.256;2023-07-31T04:25:09;18.52;;;12.32;;
6527;SDS011;64597;42.664;23.256;2023-07-31T04:27:34;18.33;;;12.60;;
6527;SDS011;64597;42.664;23.256;2023-07-31T04:30:00;18.70;;;12.20;;
6527;SDS011;64597;42.664;23.256;2023-07-31T04:32:25;18.63;;;12.60;;
6527;SDS011;64597;42.664;23.256;2023-07-31T04:34:52;18.45;;;12.75;;
6527;SDS011;64597;42.664;23.256;2023-07-31T04:37:18;19.40;;;12.60;;
6527;SDS011;64597;42.664;23.256;2023-07-31T04:39:43;19.35;;;13.18;;
6527;SDS011;64597;42.664;23.256;2023-07-31T04:42:08;16.58;;;11.68;;
6527;SDS011;64597;42.664;23.256;2023-07-31T04:44:35;20.75;;;13.10;;
6527;SDS011;64597;42.664;23.256;2023-07-31T04:47:00;16.88;;;11.27;;
6527;SDS011;64597;42.664;23.256;2023-07-31T04:49:27;21.85;;;12.52;;
6527;SDS011;64597;42.664;23.256;2023-07-31T04:51:52;17.80;;;11.95;;
6527;SDS011;64597;42.664;23.256;2023-07-31T04:54:17;17.13;;;12.07;;
6527;SDS011;64597;42.664;23.256;2023-07-31T04:56:43;16.90;;;11.10;;
6527;SDS011;64597;42.664;23.256;2023-07-31T04:59:08;17.80;;;11.88;;
6527;SDS011;64597;42.664;23.256;2023-07-31T05:01:34;18.98;;;12.32;;
6527;SDS011;64597;42.664;23.256;2023-07-31T05:03:59;16.05;;;11.25;;
6527;SDS011;64597;42.664;23.256;2023-07-31T05:06:25;14.57;;;10.32;;
6527;SDS011;64597;42.664;23.256;2023-07-31T05:08:50;14.68;;;9.93;;
6527;SDS011;64597;42.664;23.256;2023-07-31T05:11:16;16.25;;;11.15;;
6527;SDS011;64597;42.664;23.256;2023-07-31T05:13:42;16.00;;;10.88;;
6527;SDS011;64597;42.664;23.256;2023-07-31T05:16:07;14.38;;;10.25;;
6527;SDS011;64597;42.664;23.256;2023-07-31T05:18:33;14.25;;;9.43;;
6527;SDS011;64597;42.664;23.256;2023-07-31T05:20:58;14.80;;;10.43;;
6527;SDS011;64597;42.664;23.256;2023-07-31T05:23:24;14.73;;;9.50;;
6527;SDS011;64597;42.664;23.256;2023-07-31T05:25:49;15.35;;;9.85;;
6527;SDS011;64597;42.664;23.256;2023-07-31T05:28:15;12.60;;;9.43;;
6527;SDS011;64597;42.664;23.256;2023-07-31T05:30:40;11.77;;;8.88;;
6527;SDS011;64597;42.664;23.256;2023-07-31T05:33:06;11.25;;;8.13;;
6527;SDS011;64597;42.664;23.256;2023-07-31T05:35:31;10.02;;;8.35;;
6527;SDS011;64597;42.664;23.256;2023-07-31T05:37:57;10.57;;;7.75;;
6527;SDS011;64597;42.664;23.256;2023-07-31T05:40:22;11.35;;;7.50;;
6527;SDS011;64597;42.664;23.256;2023-07-31T05:42:48;12.43;;;8.32;;
6527;SDS011;64597;42.664;23.256;2023-07-31T05:45:13;10.20;;;7.80;;
6527;SDS011;64597;42.664;23.256;2023-07-31T05:47:39;9.70;;;8.35;;
6527;SDS011;64597;42.664;23.256;2023-07-31T05:50:05;8.93;;;7.00;;
6527;SDS011;64597;42.664;23.256;2023-07-31T05:52:30;8.15;;;6.90;;
6527;SDS011;64597;42.664;23.256;2023-07-31T05:54:56;9.20;;;6.70;;
6527;SDS011;64597;42.664;23.256;2023-07-31T05:57:22;7.90;;;6.60;;
6527;SDS011;64597;42.664;23.256;2023-07-31T05:59:47;9.10;;;6.18;;
6527;SDS011;64597;42.664;23.256;2023-07-31T06:02:13;7.50;;;5.28;;
6527;SDS011;64597;42.664;23.256;2023-07-31T06:04:38;7.03;;;4.95;;
6527;SDS011;64597;42.664;23.256;2023-07-31T06:07:03;6.90;;;4.68;;
6527;SDS011;64597;42.664;23.256;2023-07-31T06:09:29;7.78;;;4.97;;
6527;SDS011;64597;42.664;23.256;2023-07-31T06:11:54;5.35;;;4.13;;
6527;SDS011;64597;42.664;23.256;2023-07-31T06:14:20;7.53;;;4.57;;
6527;SDS011;64597;42.664;23.256;2023-07-31T06:16:46;6.18;;;3.03;;
6527;SDS011;64597;42.664;23.256;2023-07-31T06:19:11;5.47;;;3.70;;
6527;SDS011;64597;42.664;23.256;2023-07-31T06:21:37;6.57;;;3.47;;
6527;SDS011;64597;42.664;23.256;2023-07-31T06:24:03;5.30;;;3.80;;
6527;SDS011;64597;42.664;23.256;2023-07-31T06:26:30;5.13;;;3.53;;
6527;SDS011;64597;42.664;23.256;2023-07-31T06:28:55;5.00;;;4.07;;
6527;SDS011;64597;42.664;23.256;2023-07-31T06:31:20;5.32;;;3.47;;
6527;SDS011;64597;42.664;23.256;2023-07-31T06:33:48;4.47;;;3.42;;
6527;SDS011;64597;42.664;23.256;2023-07-31T06:36:14;5.10;;;3.45;;
6527;SDS011;64597;42.664;23.256;2023-07-31T06:38:40;5.53;;;3.67;;
6527;SDS011;64597;42.664;23.256;2023-07-31T06:41:05;3.67;;;3.25;;
6527;SDS011;64597;42.664;23.256;2023-07-31T06:43:31;5.20;;;2.90;;
6527;SDS011;64597;42.664;23.256;2023-07-31T06:45:56;4.15;;;3.50;;
6527;SDS011;64597;42.664;23.256;2023-07-31T06:48:22;4.88;;;4.25;;
6527;SDS011;64597;42.664;23.256;2023-07-31T06:50:47;4.15;;;3.25;;
6527;SDS011;64597;42.664;23.256;2023-07-31T06:53:12;10.00;;;6.32;;
6527;SDS011;64597;42.664;23.256;2023-07-31T06:55:38;6.63;;;4.10;;
6527;SDS011;64597;42.664;23.256;2023-07-31T06:58:03;3.67;;;3.22;;
6527;SDS011;64597;42.664;23.256;2023-07-31T07:00:29;3.00;;;2.50;;
6527;SDS011;64597;42.664;23.256;2023-07-31T07:02:54;4.28;;;2.42;;
6527;SDS011;64597;42.664;23.256;2023-07-31T07:05:20;3.40;;;2.80;;
6527;SDS011;64597;42.664;23.256;2023-07-31T07:07:45;3.75;;;2.55;;
6527;SDS011;64597;42.664;23.256;2023-07-31T07:10:11;4.93;;;2.40;;
6527;SDS011;64597;42.664;23.256;2023-07-31T07:12:37;4.95;;;2.33;;
6527;SDS011;64597;42.664;23.256;2023-07-31T07:15:02;3.05;;;2.17;;
6527;SDS011;64597;42.664;23.256;2023-07-31T07:17:31;3.28;;;2.17;;
6527;SDS011;64597;42.664;23.256;2023-07-31T07:19:57;3.42;;;2.30;;
6527;SDS011;64597;42.664;23.256;2023-07-31T07:22:23;3.47;;;2.22;;
6527;SDS011;64597;42.664;23.256;2023-07-31T07:24:49;2.25;;;1.92;;
6527;SDS011;64597;42.664;23.256;2023-07-31T07:27:15;2.30;;;1.75;;
6527;SDS011;64597;42.664;23.256;2023-07-31T07:29:41;2.00;;;1.60;;
6527;SDS011;64597;42.664;23.256;2023-07-31T07:32:06;2.90;;;1.80;;
6527;SDS011;64597;42.664;23.256;2023-07-31T07:34:32;2.42;;;1.75;;
6527;SDS011;64597;42.664;23.256;2023-07-31T07:36:58;2.75;;;2.15;;
6527;SDS011;64597;42.664;23.256;2023-07-31T07:39:23;3.20;;;2.00;;
6527;SDS011;64597;42.664;23.256;2023-07-31T07:41:50;2.30;;;2.10;;
6527;SDS011;64597;42.664;23.256;2023-07-31T07:44:15;2.55;;;2.10;;
6527;SDS011;64597;42.664;23.256;2023-07-31T07:46:41;2.17;;;1.90;;
6527;SDS011;64597;42.664;23.256;2023-07-31T07:49:06;3.30;;;1.80;;
6527;SDS011;64597;42.664;23.256;2023-07-31T07:51:32;2.20;;;1.90;;
6527;SDS011;64597;42.664;23.256;2023-07-31T07:53:58;2.78;;;2.10;;
6527;SDS011;64597;42.664;23.256;2023-07-31T07:56:25;2.60;;;2.13;;
6527;SDS011;64597;42.664;23.256;2023-07-31T07:58:51;3.20;;;2.20;;
6527;SDS011;64597;42.664;23.256;2023-07-31T08:01:17;4.43;;;2.30;;
6527;SDS011;64597;42.664;23.256;2023-07-31T08:03:42;5.72;;;2.10;;
6527;SDS011;64597;42.664;23.256;2023-07-31T08:06:08;2.65;;;1.95;;
6527;SDS011;64597;42.664;23.256;2023-07-31T08:08:34;2.15;;;1.95;;
6527;SDS011;64597;42.664;23.256;2023-07-31T08:11:04;4.07;;;2.00;;
6527;SDS011;64597;42.664;23.256;2023-07-31T08:13:30;2.20;;;1.95;;
6527;SDS011;64597;42.664;23.256;2023-07-31T08:15:55;2.42;;;2.10;;
6527;SDS011;64597;42.664;23.256;2023-07-31T08:18:22;3.60;;;2.15;;
6527;SDS011;64597;42.664;23.256;2023-07-31T08:20:48;3.08;;;2.40;;
6527;SDS011;64597;42.664;23.256;2023-07-31T08:23:14;3.10;;;2.17;;
6527;SDS011;64597;42.664;23.256;2023-07-31T08:25:40;2.40;;;1.92;;
6527;SDS011;64597;42.664;23.256;2023-07-31T08:28:05;3.58;;;2.03;;
6527;SDS011;64597;42.664;23.256;2023-07-31T08:30:31;2.80;;;2.10;;
6527;SDS011;64597;42.664;23.256;2023-07-31T08:32:58;2.40;;;2.00;;
6527;SDS011;64597;42.664;23.256;2023-07-31T08:35:24;4.22;;;2.00;;
6527;SDS011;64597;42.664;23.256;2023-07-31T08:37:50;2.35;;;1.85;;
6527;SDS011;64597;42.664;23.256;2023-07-31T08:40:16;3.70;;;2.15;;
6527;SDS011;64597;42.664;23.256;2023-07-31T08:42:45;5.63;;;1.90;;
6527;SDS011;64597;42.664;23.256;2023-07-31T08:45:15;2.20;;;1.80;;
6527;SDS011;64597;42.664;23.256;2023-07-31T08:47:45;2.15;;;1.80;;
6527;SDS011;64597;42.664;23.256;2023-07-31T08:50:13;2.58;;;2.10;;
6527;SDS011;64597;42.664;23.256;2023-07-31T08:52:39;5.28;;;2.40;;
6527;SDS011;64597;42.664;23.256;2023-07-31T08:55:05;3.63;;;2.17;;
6527;SDS011;64597;42.664;23.256;2023-07-31T08:57:32;3.47;;;2.20;;
6527;SDS011;64597;42.664;23.256;2023-07-31T09:00:02;5.05;;;2.15;;
6527;SDS011;64597;42.664;23.256;2023-07-31T09:02:31;3.13;;;1.98;;
6527;SDS011;64597;42.664;23.256;2023-07-31T09:05:02;2.70;;;1.85;;
6527;SDS011;64597;42.664;23.256;2023-07-31T09:07:30;3.30;;;2.03;;
6527;SDS011;64597;42.664;23.256;2023-07-31T09:09:58;3.13;;;1.88;;
6527;SDS011;64597;42.664;23.256;2023-07-31T09:12:25;2.53;;;2.08;;
6527;SDS011;64597;42.664;23.256;2023-07-31T09:14:50;2.80;;;1.92;;
6527;SDS011;64597;42.664;23.256;2023-07-31T09:17:16;2.88;;;2.13;;
6527;SDS011;64597;42.664;23.256;2023-07-31T09:19:57;2.75;;;1.88;;
6527;SDS011;64597;42.664;23.256;2023-07-31T09:22:37;2.35;;;1.83;;
6527;SDS011;64597;42.664;23.256;2023-07-31T09:30:13;5.00;;;2.45;;
6527;SDS011;64597;42.664;23.256;2023-07-31T09:32:40;2.40;;;2.08;;
6527;SDS011;64597;42.664;23.256;2023-07-31T09:35:50;4.25;;;2.55;;
6527;SDS011;64597;42.664;23.256;2023-07-31T09:37:59;2.28;;;2.05;;
6527;SDS011;64597;42.664;23.256;2023-07-31T09:40:35;2.35;;;1.80;;
6527;SDS011;64597;42.664;23.256;2023-07-31T09:43:06;2.80;;;2.00;;
6527;SDS011;64597;42.664;23.256;2023-07-31T09:45:37;3.50;;;1.90;;
6527;SDS011;64597;42.664;23.256;2023-07-31T09:48:09;3.30;;;2.35;;
6527;SDS011;64597;42.664;23.256;2023-07-31T09:50:37;3.22;;;2.03;;
6527;SDS011;64597;42.664;23.256;2023-07-31T09:53:04;3.53;;;2.17;;
6527;SDS011;64597;42.664;23.256;2023-07-31T09:55:29;2.30;;;1.98;;
6527;SDS011;64597;42.664;23.256;2023-07-31T09:57:56;2.25;;;1.95;;
6527;SDS011;64597;42.664;23.256;2023-07-31T10:00:22;3.80;;;2.28;;
6527;SDS011;64597;42.664;23.256;2023-07-31T10:02:50;2.55;;;1.90;;
6527;SDS011;64597;42.664;23.256;2023-07-31T10:05:16;3.67;;;1.95;;
6527;SDS011;64597;42.664;23.256;2023-07-31T10:07:42;2.70;;;1.58;;
6527;SDS011;64597;42.664;23.256;2023-07-31T10:10:17;2.90;;;1.70;;
6527;SDS011;64597;42.664;23.256;2023-07-31T10:12:52;2.25;;;1.50;;
6527;SDS011;64597;42.664;23.256;2023-07-31T10:15:19;1.98;;;1.58;;
6527;SDS011;64597;42.664;23.256;2023-07-31T10:17:47;1.73;;;1.50;;
6527;SDS011;64597;42.664;23.256;2023-07-31T10:20:14;2.42;;;1.60;;
6527;SDS011;64597;42.664;23.256;2023-07-31T10:22:41;3.10;;;2.13;;
6527;SDS011;64597;42.664;23.256;2023-07-31T10:25:08;3.63;;;2.03;;
6527;SDS011;64597;42.664;23.256;2023-07-31T10:27:35;1.77;;;1.65;;
6527;SDS011;64597;42.664;23.256;2023-07-31T10:30:01;3.25;;;1.85;;
6527;SDS011;64597;42.664;23.256;2023-07-31T10:32:30;1.90;;;1.67;;
6527;SDS011;64597;42.664;23.256;2023-07-31T10:34:55;2.03;;;1.67;;
6527;SDS011;64597;42.664;23.256;2023-07-31T10:37:29;1.60;;;1.50;;
6527;SDS011;64597;42.664;23.256;2023-07-31T10:43:05;2.10;;;1.75;;
6527;SDS011;64597;42.664;23.256;2023-07-31T10:48:02;3.88;;;1.60;;
6527;SDS011;64597;42.664;23.256;2023-07-31T10:50:38;3.58;;;1.92;;
6527;SDS011;64597;42.664;23.256;2023-07-31T10:53:10;2.50;;;1.40;;
6527;SDS011;64597;42.664;23.256;2023-07-31T10:55:51;2.30;;;1.80;;
6527;SDS011;64597;42.664;23.256;2023-07-31T10:58:18;2.70;;;1.90;;
6527;SDS011;64597;42.664;23.256;2023-07-31T11:00:46;1.80;;;1.30;;
6527;SDS011;64597;42.664;23.256;2023-07-31T11:03:18;1.95;;;1.63;;
6527;SDS011;64597;42.664;23.256;2023-07-31T11:08:15;2.63;;;1.40;;
6527;SDS011;64597;42.664;23.256;2023-07-31T11:10:43;2.20;;;1.67;;
6527;SDS011;64597;42.664;23.256;2023-07-31T11:15:35;1.50;;;1.27;;
6527;SDS011;64597;42.664;23.256;2023-07-31T11:18:01;2.33;;;1.30;;
6527;SDS011;64597;42.664;23.256;2023-07-31T11:20:34;1.77;;;1.45;;
6527;SDS011;64597;42.664;23.256;2023-07-31T11:23:05;2.13;;;1.80;;
6527;SDS011;64597;42.664;23.256;2023-07-31T11:25:32;2.30;;;1.70;;
6527;SDS011;64597;42.664;23.256;2023-07-31T11:30:29;1.90;;;1.70;;
6527;SDS011;64597;42.664;23.256;2023-07-31T11:32:55;2.47;;;1.83;;
6527;SDS011;64597;42.664;23.256;2023-07-31T11:35:21;2.55;;;1.70;;
6527;SDS011;64597;42.664;23.256;2023-07-31T11:37:47;3.55;;;1.58;;
6527;SDS011;64597;42.664;23.256;2023-07-31T11:40:13;3.60;;;1.83;;
6527;SDS011;64597;42.664;23.256;2023-07-31T11:42:39;2.20;;;1.98;;
6527;SDS011;64597;42.664;23.256;2023-07-31T11:45:05;3.60;;;2.17;;
6527;SDS011;64597;42.664;23.256;2023-07-31T11:47:33;2.40;;;2.08;;
6527;SDS011;64597;42.664;23.256;2023-07-31T11:50:00;3.88;;;1.80;;
6527;SDS011;64597;42.664;23.256;2023-07-31T11:52:27;3.47;;;2.30;;
6527;SDS011;64597;42.664;23.256;2023-07-31T11:54:55;2.88;;;1.98;;
6527;SDS011;64597;42.664;23.256;2023-07-31T11:57:21;3.10;;;1.73;;
6527;SDS011;64597;42.664;23.256;2023-07-31T11:59:47;3.45;;;2.08;;
6527;SDS011;64597;42.664;23.256;2023-07-31T12:02:13;3.42;;;2.47;;
6527;SDS011;64597;42.664;23.256;2023-07-31T12:04:39;3.00;;;2.10;;
6527;SDS011;64597;42.664;23.256;2023-07-31T12:07:05;3.30;;;2.83;;
6527;SDS011;64597;42.664;23.256;2023-07-31T12:09:31;3.65;;;2.65;;
6527;SDS011;64597;42.664;23.256;2023-07-31T12:11:56;4.45;;;2.88;;
6527;SDS011;64597;42.664;23.256;2023-07-31T12:14:25;3.50;;;2.85;;
6527;SDS011;64597;42.664;23.256;2023-07-31T12:16:54;5.43;;;3.08;;
6527;SDS011;64597;42.664;23.256;2023-07-31T12:19:21;3.90;;;3.28;;
6527;SDS011;64597;42.664;23.256;2023-07-31T12:21:47;4.47;;;4.07;;
6527;SDS011;64597;42.664;23.256;2023-07-31T12:24:13;4.60;;;4.10;;
6527;SDS011;64597;42.664;23.256;2023-07-31T12:26:38;8.13;;;4.60;;
6527;SDS011;64597;42.664;23.256;2023-07-31T12:29:05;3.90;;;3.50;;
6527;SDS011;64597;42.664;23.256;2023-07-31T12:31:33;4.22;;;3.80;;
6527;SDS011;64597;42.664;23.256;2023-07-31T12:33:59;4.22;;;3.40;;
6527;SDS011;64597;42.664;23.256;2023-07-31T12:36:24;3.80;;;3.40;;
6527;SDS011;64597;42.664;23.256;2023-07-31T12:38:50;4.13;;;3.72;;
6527;SDS011;64597;42.664;23.256;2023-07-31T12:41:17;4.68;;;3.70;;
6527;SDS011;64597;42.664;23.256;2023-07-31T12:43:43;3.63;;;3.33;;
6527;SDS011;64597;42.664;23.256;2023-07-31T12:46:10;5.07;;;3.95;;
6527;SDS011;64597;42.664;23.256;2023-07-31T12:48:39;5.10;;;3.88;;
6527;SDS011;64597;42.664;23.256;2023-07-31T12:51:06;4.57;;;4.07;;
6527;SDS011;64597;42.664;23.256;2023-07-31T12:53:32;4.93;;;4.43;;
6527;SDS011;64597;42.664;23.256;2023-07-31T12:55:58;5.38;;;4.75;;
6527;SDS011;64597;42.664;23.256;2023-07-31T12:58:23;5.20;;;4.60;;
6527;SDS011;64597;42.664;23.256;2023-07-31T13:00:49;4.97;;;4.22;;
6527;SDS011;64597;42.664;23.256;2023-07-31T13:03:15;5.47;;;4.70;;
6527;SDS011;64597;42.664;23.256;2023-07-31T13:05:40;6.28;;;4.53;;
6527;SDS011;64597;42.664;23.256;2023-07-31T13:08:06;3.95;;;3.60;;
6527;SDS011;64597;42.664;23.256;2023-07-31T13:10:31;5.53;;;4.85;;
6527;SDS011;64597;42.664;23.256;2023-07-31T13:12:57;6.65;;;4.35;;
6527;SDS011;64597;42.664;23.256;2023-07-31T13:15:22;4.63;;;4.13;;
6527;SDS011;64597;42.664;23.256;2023-07-31T13:17:48;5.68;;;4.50;;
6527;SDS011;64597;42.664;23.256;2023-07-31T13:20:14;5.25;;;3.90;;
6527;SDS011;64597;42.664;23.256;2023-07-31T13:22:40;5.25;;;4.25;;
6527;SDS011;64597;42.664;23.256;2023-07-31T13:25:05;5.35;;;4.82;;
6527;SDS011;64597;42.664;23.256;2023-07-31T13:27:31;4.10;;;3.70;;
6527;SDS011;64597;42.664;23.256;2023-07-31T13:29:57;4.10;;;3.60;;
6527;SDS011;64597;42.664;23.256;2023-07-31T13:32:22;3.85;;;3.45;;
6527;SDS011;64597;42.664;23.256;2023-07-31T13:34:48;3.83;;;3.42;;
6527;SDS011;64597;42.664;23.256;2023-07-31T13:37:14;3.45;;;3.15;;
6527;SDS011;64597;42.664;23.256;2023-07-31T13:39:40;4.13;;;3.25;;
6527;SDS011;64597;42.664;23.256;2023-07-31T13:42:06;5.10;;;3.30;;
6527;SDS011;64597;42.664;23.256;2023-07-31T13:44:36;3.95;;;3.45;;
6527;SDS011;64597;42.664;23.256;2023-07-31T13:47:02;4.32;;;3.80;;
6527;SDS011;64597;42.664;23.256;2023-07-31T13:49:28;4.55;;;4.00;;
6527;SDS011;64597;42.664;23.256;2023-07-31T13:51:55;5.47;;;3.80;;
6527;SDS011;64597;42.664;23.256;2023-07-31T13:54:20;4.13;;;3.20;;
6527;SDS011;64597;42.664;23.256;2023-07-31T13:56:47;3.50;;;3.00;;
6527;SDS011;64597;42.664;23.256;2023-07-31T13:59:12;3.67;;;3.33;;
6527;SDS011;64597;42.664;23.256;2023-07-31T14:04:05;6.15;;;3.45;;
6527;SDS011;64597;42.664;23.256;2023-07-31T14:06:30;7.85;;;3.67;;
6527;SDS011;64597;42.664;23.256;2023-07-31T14:08:56;3.75;;;3.33;;
6527;SDS011;64597;42.664;23.256;2023-07-31T14:11:21;4.32;;;3.45;;
6527;SDS011;64597;42.664;23.256;2023-07-31T14:13:47;5.10;;;3.90;;
6527;SDS011;64597;42.664;23.256;2023-07-31T14:16:13;5.63;;;4.50;;
6527;SDS011;64597;42.664;23.256;2023-07-31T14:18:38;5.15;;;3.33;;
6527;SDS011;64597;42.664;23.256;2023-07-31T14:21:03;4.78;;;3.70;;
6527;SDS011;64597;42.664;23.256;2023-07-31T14:23:29;4.10;;;3.47;;
6527;SDS011;64597;42.664;23.256;2023-07-31T14:25:55;5.35;;;3.08;;
6527;SDS011;64597;42.664;23.256;2023-07-31T14:28:20;4.32;;;3.33;;
6527;SDS011;64597;42.664;23.256;2023-07-31T14:30:45;3.30;;;2.88;;
6527;SDS011;64597;42.664;23.256;2023-07-31T14:33:11;3.10;;;2.80;;
6527;SDS011;64597;42.664;23.256;2023-07-31T14:35:36;4.90;;;3.75;;
6527;SDS011;64597;42.664;23.256;2023-07-31T14:38:02;2.65;;;2.45;;
6527;SDS011;64597;42.664;23.256;2023-07-31T14:40:27;5.43;;;3.70;;
6527;SDS011;64597;42.664;23.256;2023-07-31T14:42:53;5.22;;;3.33;;
6527;SDS011;64597;42.664;23.256;2023-07-31T14:45:18;3.78;;;3.33;;
6527;SDS011;64597;42.664;23.256;2023-07-31T14:47:44;3.45;;;2.72;;
6527;SDS011;64597;42.664;23.256;2023-07-31T14:50:09;4.57;;;3.00;;
6527;SDS011;64597;42.664;23.256;2023-07-31T14:52:35;3.33;;;2.72;;
6527;SDS011;64597;42.664;23.256;2023-07-31T14:55:01;4.45;;;2.67;;
6527;SDS011;64597;42.664;23.256;2023-07-31T14:57:26;3.35;;;3.05;;
6527;SDS011;64597;42.664;23.256;2023-07-31T14:59:52;3.20;;;2.90;;
6527;SDS011;64597;42.664;23.256;2023-07-31T15:02:18;4.07;;;3.25;;
6527;SDS011;64597;42.664;23.256;2023-07-31T15:04:43;3.28;;;2.90;;
6527;SDS011;64597;42.664;23.256;2023-07-31T15:07:08;2.92;;;2.63;;